Time;durP1;ratioP1;P1;durP2;ratioP2;P2;SDS_P1;SDS_P2;PMS_P1;PMS_P2;Temp;Humidity;BMP_temperature;BMP_pressure;BME280_temperature;BME280_humidity;BME280_pressure;Samples;Min_cycle;Max_cycle;Signal;HPM_P1;HPM_P2
2023/08/16 00:02:19;;;;;;;;;;;;;;;26.38;53.14;100882.03;6233376;23;19915;-82
2023/08/16 00:05:11;;;;;;;;;;;;;;;26.27;52.72;100884.16;6254858;23;19907;-81
2023/08/16 00:07:58;;;;;;;;;;;;;;;26.31;52.01;100893.25;6253425;23;20250;-81
2023/08/16 00:10:50;;;;;;;;;;;;;;;26.02;53.57;100892.00;6254585;23;19911;-81
2023/08/16 00:13:42;;;;;;;;;;;;;;;26.06;54.34;100895.53;6232300;23;19908;-80
2023/08/16 00:16:34;;;;;;;;;;;;;;;26.01;53.51;100890.44;6232662;23;20513;-81
2023/08/16 00:19:26;;;;;;;;;;;;;;;26.07;51.98;100885.97;6231937;23;19908;-81
2023/08/16 00:22:18;;;;;;;;;;;;;;;26.18;51.11;100877.47;6254624;23;19908;-81
2023/08/16 00:25:08;;;;;;;;;;;;;;;26.28;50.46;100876.59;6232625;23;20326;-81
2023/08/16 00:27:57;;;;;;;;;;;;;;;26.32;50.43;100878.13;6263325;23;19919;-81
2023/08/16 00:30:44;;;;;;;;;;;;;;;26.37;50.23;100871.28;6246077;23;19912;-82
2023/08/16 00:33:36;;;;;;;;;;;;;;;26.52;49.72;100875.44;6256932;23;20319;-82
2023/08/16 00:36:28;;;;;;;;;;;;;;;26.51;49.37;100878.69;6237251;23;19911;-87
2023/08/16 00:39:20;;;;;;;;;;;;;;;26.47;49.41;100883.50;6240245;23;19911;-87
2023/08/16 00:42:10;;;;;;;;;;;;;;;26.42;49.95;100872.81;6239523;23;19911;-87
2023/08/16 00:44:59;;;;;;;;;;;;;;;26.44;50.24;100876.78;6239560;23;19907;-87
2023/08/16 00:47:51;;;;;;;;;;;;;;;26.42;50.37;100881.16;6262018;23;20250;-84
2023/08/16 00:50:45;;;;;;;;;;;;;;;26.44;50.23;100884.34;6235719;23;19907;-85
2023/08/16 00:53:34;;;;;;;;;;;;;;;26.42;49.88;100881.16;6234470;23;19907;-85
2023/08/16 00:56:26;;;;;;;;;;;;;;;26.37;50.12;100880.44;6235867;23;19907;-85
2023/08/16 00:59:14;;;;;;;;;;;;;;;26.32;50.49;100875.31;6256378;23;19907;-85
2023/08/16 01:02:06;;;;;;;;;;;;;;;26.33;50.85;100879.69;6256601;23;19911;-86
2023/08/16 01:04:58;;;;;;;;;;;;;;;26.34;50.77;100875.72;6232578;23;19908;-85
2023/08/16 01:07:48;;;;;;;;;;;;;;;26.31;51.28;100868.16;6213321;23;19915;-85
2023/08/16 01:10:43;;;;;;;;;;;;;;;26.30;51.22;100874.97;6213617;23;20413;-82
2023/08/16 01:13:49;;;;;;;;;;;;;;;26.30;51.22;100874.97;6234142;23;19908;-83
2023/08/16 01:16:39;;;;;;;;;;;;;;;26.26;51.41;100877.00;6234205;23;19907;-83
2023/08/16 01:19:31;;;;;;;;;;;;;;;26.27;51.38;100873.00;6233531;23;19912;-83
2023/08/16 01:22:40;;;;;;;;;;;;;;;26.19;51.96;100868.72;6255383;23;19907;-83
2023/08/16 01:25:48;;;;;;;;;;;;;;;26.12;52.00;100873.56;6233996;23;19911;-83
2023/08/16 01:28:41;;;;;;;;;;;;;;;26.13;51.80;100869.59;6256110;23;19941;-83
2023/08/16 01:31:33;;;;;;;;;;;;;;;26.10;52.07;100868.44;6233758;23;20322;-82
2023/08/16 01:34:23;;;;;;;;;;;;;;;26.13;51.87;100864.00;6256486;23;19907;-82
2023/08/16 01:37:12;;;;;;;;;;;;;;;26.07;52.09;100872.03;6255501;23;19907;-83
2023/08/16 01:40:04;;;;;;;;;;;;;;;26.05;52.14;100863.31;6234222;23;19908;-83
2023/08/16 01:42:57;;;;;;;;;;;;;;;26.06;52.10;100873.25;6233735;23;19911;-83
2023/08/16 01:45:48;;;;;;;;;;;;;;;26.07;52.31;100860.88;6233811;23;19911;-82
2023/08/16 01:48:41;;;;;;;;;;;;;;;26.07;52.24;100869.25;6233329;23;19907;-82
2023/08/16 01:51:33;;;;;;;;;;;;;;;26.03;52.21;100860.16;6233300;23;19908;-83
2023/08/16 01:54:25;;;;;;;;;;;;;;;26.00;52.33;100861.00;6233943;23;19907;-83
2023/08/16 01:57:15;;;;;;;;;;;;;;;26.05;52.25;100860.53;6256225;23;19911;-83
2023/08/16 02:00:05;;;;;;;;;;;;;;;26.02;52.13;100864.13;6212211;23;19911;-83
2023/08/16 02:03:04;;;;;;;;;;;;;;;26.03;52.18;100865.72;6235781;23;19908;-82
2023/08/16 02:05:56;;;;;;;;;;;;;;;25.91;52.48;100864.25;6212569;23;19908;-84
2023/08/16 02:08:45;;;;;;;;;;;;;;;25.89;52.49;100858.34;6254538;23;19911;-83
2023/08/16 02:11:35;;;;;;;;;;;;;;;25.90;52.60;100859.13;6233876;23;19911;-81
2023/08/16 02:14:24;;;;;;;;;;;;;;;25.78;52.83;100859.66;6233855;23;19908;-85
2023/08/16 02:17:16;;;;;;;;;;;;;;;25.79;53.07;100850.09;6233745;23;19907;-84
2023/08/16 02:20:11;;;;;;;;;;;;;;;25.67;52.41;100856.19;6233381;23;19908;-83
2023/08/16 02:23:03;;;;;;;;;;;;;;;25.65;53.09;100855.84;6255913;23;20335;-83
2023/08/16 02:25:53;;;;;;;;;;;;;;;25.53;53.38;100852.34;6233198;23;19908;-82
2023/08/16 02:28:47;;;;;;;;;;;;;;;25.48;53.49;100854.78;6233349;23;19907;-82
2023/08/16 02:31:37;;;;;;;;;;;;;;;25.52;53.47;100852.75;6255950;23;20254;-82
2023/08/16 02:34:29;;;;;;;;;;;;;;;25.57;52.83;100854.31;6254896;23;20326;-83
2023/08/16 02:37:21;;;;;;;;;;;;;;;25.64;52.35;100865.38;6254719;23;20242;-83
2023/08/16 02:40:13;;;;;;;;;;;;;;;25.65;52.65;100861.41;6233266;23;19911;-82
2023/08/16 02:43:05;;;;;;;;;;;;;;;25.02;54.09;100864.34;6233878;23;19908;-82
2023/08/16 02:45:58;;;;;;;;;;;;;;;25.00;53.81;100850.03;6233749;23;20331;-81
2023/08/16 02:48:50;;;;;;;;;;;;;;;25.16;53.62;100846.72;6255172;23;19915;-81
2023/08/16 02:51:42;;;;;;;;;;;;;;;25.32;51.16;100858.09;6254231;23;19908;-83
2023/08/16 02:54:29;;;;;;;;;;;;;;;25.09;52.18;100857.94;6233570;23;19908;-83
2023/08/16 02:57:21;;;;;;;;;;;;;;;24.99;52.53;100847.69;6254914;23;19908;-83
2023/08/16 03:00:10;;;;;;;;;;;;;;;25.09;53.75;100853.13;6233781;23;19907;-83
2023/08/16 03:02:59;;;;;;;;;;;;;;;25.10;51.37;100851.94;6233597;23;19911;-84
2023/08/16 03:05:46;;;;;;;;;;;;;;;24.51;55.36;100851.16;6233498;23;19907;-83
2023/08/16 03:08:36;;;;;;;;;;;;;;;24.03;56.56;100842.63;6254586;23;20327;-83
2023/08/16 03:11:23;;;;;;;;;;;;;;;24.42;55.35;100850.03;6233974;23;19908;-83
2023/08/16 03:14:15;;;;;;;;;;;;;;;24.56;55.10;100849.94;6233633;23;20243;-83
2023/08/16 03:17:07;;;;;;;;;;;;;;;24.69;55.11;100849.03;6254676;23;20330;-84
2023/08/16 03:19:58;;;;;;;;;;;;;;;24.61;55.36;100849.50;6249882;23;19908;-83
2023/08/16 03:22:48;;;;;;;;;;;;;;;24.54;57.17;100853.13;6254857;23;19907;-85
2023/08/16 03:25:40;;;;;;;;;;;;;;;24.35;58.11;100856.41;6233260;23;19907;-82
2023/08/16 03:28:32;;;;;;;;;;;;;;;24.37;57.85;100850.47;6232386;23;20334;-82
2023/08/16 03:31:21;;;;;;;;;;;;;;;24.38;57.52;100850.03;6232611;23;19907;-83
2023/08/16 03:34:13;;;;;;;;;;;;;;;24.31;57.76;100843.72;6233273;23;20327;-82
2023/08/16 03:37:03;;;;;;;;;;;;;;;24.32;57.00;100856.44;6232402;23;19919;-83
2023/08/16 03:39:55;;;;;;;;;;;;;;;24.16;58.19;100856.88;6253801;23;19907;-83
2023/08/16 03:42:47;;;;;;;;;;;;;;;24.13;58.03;100858.47;6211926;23;19907;-83
2023/08/16 03:45:39;;;;;;;;;;;;;;;24.24;57.69;100850.91;6271827;23;19911;-83
2023/08/16 03:48:29;;;;;;;;;;;;;;;24.23;58.04;100862.44;6245911;23;19915;-84
2023/08/16 03:51:21;;;;;;;;;;;;;;;24.11;58.49;100866.44;6238477;23;20250;-84
2023/08/16 03:54:13;;;;;;;;;;;;;;;23.92;59.01;100864.13;6260521;23;19908;-84
2023/08/16 03:57:03;;;;;;;;;;;;;;;23.98;58.73;100870.03;6236031;23;19907;-84
2023/08/16 03:59:56;;;;;;;;;;;;;;;23.88;59.10;100869.69;6256463;23;19908;-85
2023/08/16 04:02:48;;;;;;;;;;;;;;;23.50;60.20;100880.91;6253648;23;19908;-82
2023/08/16 04:05:40;;;;;;;;;;;;;;;23.43;60.59;100882.44;6254077;23;19907;-83
2023/08/16 04:08:32;;;;;;;;;;;;;;;23.57;60.02;100876.09;6253498;23;20327;-82
2023/08/16 04:11:22;;;;;;;;;;;;;;;23.48;59.96;100889.63;6232955;23;19907;-84
2023/08/16 04:14:09;;;;;;;;;;;;;;;23.34;60.94;100892.38;6232713;23;19908;-83
2023/08/16 04:17:01;;;;;;;;;;;;;;;23.48;60.36;100897.94;6232278;23;19911;-81
2023/08/16 04:19:50;;;;;;;;;;;;;;;23.19;61.52;100902.69;6250795;23;19907;-83
2023/08/16 04:22:42;;;;;;;;;;;;;;;23.43;60.85;100903.88;6232878;23;19907;-80
2023/08/16 04:25:34;;;;;;;;;;;;;;;23.53;60.70;100911.41;6232666;23;20319;-82
2023/08/16 04:28:24;;;;;;;;;;;;;;;23.35;60.82;100921.72;6231330;23;19916;-82
2023/08/16 04:31:15;;;;;;;;;;;;;;;23.22;61.40;100914.97;6232764;23;19907;-83
2023/08/16 04:34:07;;;;;;;;;;;;;;;23.49;60.58;100909.84;6232579;23;20323;-83
2023/08/16 04:36:59;;;;;;;;;;;;;;;23.52;61.06;100914.63;6232789;23;19912;-82
2023/08/16 04:39:51;;;;;;;;;;;;;;;23.57;60.34;100914.97;6232494;23;19911;-83
2023/08/16 04:42:41;;;;;;;;;;;;;;;23.49;60.62;100913.41;6231673;23;19907;-83
2023/08/16 04:45:33;;;;;;;;;;;;;;;23.46;60.88;100922.56;6253449;23;19907;-82
2023/08/16 04:48:25;;;;;;;;;;;;;;;23.56;60.81;100913.41;6232141;23;19911;-83
2023/08/16 04:51:17;;;;;;;;;;;;;;;23.52;60.77;100912.59;6231031;23;19908;-85
2023/08/16 04:54:07;;;;;;;;;;;;;;;23.60;60.66;100918.97;6211841;23;20331;-85
2023/08/16 04:56:58;;;;;;;;;;;;;;;23.77;60.11;100907.81;6232701;23;19912;-85
2023/08/16 04:59:51;;;;;;;;;;;;;;;23.68;60.42;100912.19;6233077;23;20335;-83
2023/08/16 05:02:40;;;;;;;;;;;;;;;23.83;60.27;100914.53;6215515;22;19915;-77
2023/08/16 05:05:32;;;;;;;;;;;;;;;23.64;60.88;100914.19;6201371;23;19911;-78
2023/08/16 05:08:25;;;;;;;;;;;;;;;23.47;61.36;100921.34;6201399;23;19911;-79
2023/08/16 05:11:17;;;;;;;;;;;;;;;23.52;61.45;100920.16;6222478;23;20330;-79
2023/08/16 05:14:09;;;;;;;;;;;;;;;23.64;60.64;100923.31;6192503;23;20339;-78
2023/08/16 05:16:58;;;;;;;;;;;;;;;23.66;60.54;100931.25;6172124;23;19916;-78
2023/08/16 05:19:50;;;;;;;;;;;;;;;23.61;60.63;100932.44;6171538;23;19912;-76
2023/08/16 05:22:39;;;;;;;;;;;;;;;23.70;60.23;100934.81;6213975;23;19908;-76
2023/08/16 05:25:31;;;;;;;;;;;;;;;23.92;59.49;100930.00;6194408;23;19908;-78
2023/08/16 05:28:23;;;;;;;;;;;;;;;24.01;59.17;100927.59;6172062;23;19912;-78
2023/08/16 05:31:15;;;;;;;;;;;;;;;24.00;58.86;100934.34;6171654;23;19908;-78
2023/08/16 05:34:05;;;;;;;;;;;;;;;24.05;58.86;100936.72;6193585;23;19908;-80
2023/08/16 05:36:54;;;;;;;;;;;;;;;24.19;58.36;100945.03;6171924;23;19908;-79
2023/08/16 05:39:46;;;;;;;;;;;;;;;24.08;58.31;100939.47;6171873;23;19908;-79
2023/08/16 05:42:38;;;;;;;;;;;;;;;24.18;57.73;100944.25;6192921;23;19912;-80
2023/08/16 05:45:28;;;;;;;;;;;;;;;24.16;58.05;100940.25;6192612;23;19908;-79
2023/08/16 05:48:20;;;;;;;;;;;;;;;24.18;58.18;100943.44;6171649;23;19912;-80
2023/08/16 05:51:09;;;;;;;;;;;;;;;24.19;58.50;100933.91;6172089;23;19908;-82
2023/08/16 05:53:56;;;;;;;;;;;;;;;24.07;59.02;100942.69;6201953;23;19908;-76
2023/08/16 05:56:48;;;;;;;;;;;;;;;24.15;59.71;100942.25;6202539;23;19912;-79
2023/08/16 05:59:40;;;;;;;;;;;;;;;24.60;58.72;100950.81;6194557;23;19908;-78
2023/08/16 06:02:32;;;;;;;;;;;;;;;24.78;57.07;100953.53;6173954;23;19908;-79
2023/08/16 06:05:24;;;;;;;;;;;;;;;25.20;56.03;100944.91;6196226;23;19908;-82
2023/08/16 06:08:16;;;;;;;;;;;;;;;25.31;55.29;100953.19;6172548;23;19912;-80
2023/08/16 06:11:08;;;;;;;;;;;;;;;25.61;53.54;100955.34;6173785;23;19907;-78
2023/08/16 06:14:00;;;;;;;;;;;;;;;25.89;52.87;100958.66;6173774;23;19912;-80
2023/08/16 06:16:52;;;;;;;;;;;;;;;26.20;53.59;100964.31;6194553;23;19911;-77
2023/08/16 06:19:42;;;;;;;;;;;;;;;26.48;53.13;100963.19;6172995;23;20250;-79
2023/08/16 06:22:33;;;;;;;;;;;;;;;26.82;52.54;100955.53;6196068;23;19908;-80
2023/08/16 06:25:25;;;;;;;;;;;;;;;26.98;51.73;100955.72;6215064;23;19908;-79
2023/08/16 06:28:17;;;;;;;;;;;;;;;27.18;50.57;100953.81;6173479;23;19937;-78
2023/08/16 06:31:09;;;;;;;;;;;;;;;27.60;49.83;100963.53;6173340;23;19907;-77
2023/08/16 06:34:01;;;;;;;;;;;;;;;27.75;49.10;100961.28;6193851;23;19908;-77
2023/08/16 06:36:53;;;;;;;;;;;;;;;27.87;48.54;100963.47;6195182;23;19908;-76
2023/08/16 06:39:43;;;;;;;;;;;;;;;28.09;48.36;100969.44;6172746;23;19908;-79
2023/08/16 06:42:35;;;;;;;;;;;;;;;28.22;47.94;100964.81;6194151;23;19912;-77
2023/08/16 06:45:24;;;;;;;;;;;;;;;28.63;46.65;100964.38;6193520;23;19908;-75
2023/08/16 06:48:16;;;;;;;;;;;;;;;28.96;46.04;100965.25;6173140;23;19912;-78
2023/08/16 06:51:06;;;;;;;;;;;;;;;29.44;44.67;100967.34;6195426;23;19908;-76
2023/08/16 06:53:57;;;;;;;;;;;;;;;29.93;43.37;100970.09;6195531;23;19908;-77
2023/08/16 06:56:49;;;;;;;;;;;;;;;30.54;42.35;100969.97;6173457;23;19912;-78
2023/08/16 06:59:41;;;;;;;;;;;;;;;31.13;40.86;100972.22;6194983;23;19908;-78
2023/08/16 07:02:33;;;;;;;;;;;;;;;31.97;39.52;100964.16;6193632;23;19908;-79
2023/08/16 07:05:23;;;;;;;;;;;;;;;32.62;37.70;100969.78;6173599;23;19908;-79
2023/08/16 07:08:15;;;;;;;;;;;;;;;33.44;35.73;100975.81;6172404;23;19912;-77
2023/08/16 07:11:07;;;;;;;;;;;;;;;34.57;33.83;100982.13;6172245;23;20275;-80
2023/08/16 07:13:59;;;;;;;;;;;;;;;33.97;33.62;100972.78;6172866;23;19912;-81
2023/08/16 07:16:51;;;;;;;;;;;;;;;34.37;32.99;100983.91;6174317;23;19912;-82
2023/08/16 07:19:42;;;;;;;;;;;;;;;33.68;34.31;100979.63;6195776;23;19912;-81
2023/08/16 07:22:34;;;;;;;;;;;;;;;33.23;35.08;100968.22;6176077;23;19908;-85
2023/08/16 07:25:26;;;;;;;;;;;;;;;37.32;28.46;100975.94;6194757;23;19908;-78
2023/08/16 07:28:18;;;;;;;;;;;;;;;40.32;24.25;100984.16;6194040;23;19912;-79
2023/08/16 07:31:08;;;;;;;;;;;;;;;41.81;21.50;100990.19;6194309;23;19908;-79
2023/08/16 07:34:00;;;;;;;;;;;;;;;42.95;21.02;100996.22;6195895;23;19908;-83
2023/08/16 07:36:52;;;;;;;;;;;;;;;42.06;21.16;100983.31;6195070;23;19912;-81
2023/08/16 07:39:44;;;;;;;;;;;;;;;42.47;20.75;100991.13;6194345;23;19908;-79
2023/08/16 07:42:34;;;;;;;;;;;;;;;41.49;21.36;100992.66;6193120;23;19908;-80
2023/08/16 07:45:26;;;;;;;;;;;;;;;40.49;21.49;101004.09;6172519;23;19908;-79
2023/08/16 07:48:18;;;;;;;;;;;;;;;40.42;22.99;101004.63;6172151;23;20256;-79
2023/08/16 07:51:10;;;;;;;;;;;;;;;44.14;18.85;101009.44;6194255;23;19908;-81
2023/08/16 07:54:02;;;;;;;;;;;;;;;46.21;17.20;101013.75;6194169;23;19908;-81
2023/08/16 07:56:54;;;;;;;;;;;;;;;45.74;17.63;101013.69;6172865;23;19908;-81
2023/08/16 07:59:41;;;;;;;;;;;;;;;47.08;16.10;101004.78;6214973;23;19908;-86
2023/08/16 08:02:31;;;;;;;;;;;;;;;45.77;16.19;101008.97;6173322;23;19908;-80
2023/08/16 08:05:23;;;;;;;;;;;;;;;45.58;17.02;101009.06;6214951;23;20244;-79
2023/08/16 08:08:15;;;;;;;;;;;;;;;46.00;15.98;101004.28;6195689;23;19912;-83
2023/08/16 08:11:07;;;;;;;;;;;;;;;47.63;15.67;101001.72;6194853;23;19908;-87
2023/08/16 08:13:59;;;;;;;;;;;;;;;48.63;14.01;101010.88;6178339;23;19912;-84
2023/08/16 08:16:49;;;;;;;;;;;;;;;40.31;21.74;100994.00;6214966;23;19912;-83
2023/08/16 08:19:41;;;;;;;;;;;;;;;34.19;31.90;100976.22;6173595;23;19908;-86
2023/08/16 08:22:33;;;;;;;;;;;;;;;33.03;33.80;100980.66;6173329;23;19909;-83
2023/08/16 08:25:25;;;;;;;;;;;;;;;32.45;35.12;100971.28;6172561;23;19908;-84
2023/08/16 08:28:17;;;;;;;;;;;;;;;31.21;37.55;100975.56;6172648;23;19912;-85
2023/08/16 08:31:06;;;;;;;;;;;;;;;30.95;38.44;100986.78;6172410;23;19908;-86
2023/08/16 08:33:56;;;;;;;;;;;;;;;31.15;38.19;100971.75;6193745;23;19908;-83
2023/08/16 08:36:48;;;;;;;;;;;;;;;31.16;37.40;100976.13;6173150;23;19908;-83
2023/08/16 08:39:40;;;;;;;;;;;;;;;30.64;38.80;100976.50;6190579;23;20259;-82
2023/08/16 08:42:29;;;;;;;;;;;;;;;30.27;39.80;100978.78;6170771;23;19912;-79
2023/08/16 08:45:19;;;;;;;;;;;;;;;30.40;39.19;100982.38;6192254;23;19916;-76
2023/08/16 08:48:09;;;;;;;;;;;;;;;30.68;39.51;100977.22;6189435;23;19916;-76
2023/08/16 08:51:00;;;;;;;;;;;;;;;30.25;40.52;100975.63;6193826;23;19907;-77
2023/08/16 08:53:52;;;;;;;;;;;;;;;30.77;38.67;100971.72;6213366;23;19907;-78
2023/08/16 08:56:45;;;;;;;;;;;;;;;30.86;39.16;100975.44;6172376;23;19912;-80
2023/08/16 08:59:38;;;;;;;;;;;;;;;30.57;39.21;100975.50;6193256;23;19908;-79
2023/08/16 09:02:32;;;;;;;;;;;;;;;30.32;41.22;100977.44;6172142;23;20331;-80
2023/08/16 09:05:22;;;;;;;;;;;;;;;30.56;40.06;100973.94;6171968;23;19908;-83
2023/08/16 09:08:14;;;;;;;;;;;;;;;30.78;38.79;100973.28;6171591;23;19952;-79
2023/08/16 09:11:02;;;;;;;;;;;;;;;30.32;41.28;100974.63;6170789;23;19923;-78
2023/08/16 09:13:54;;;;;;;;;;;;;;;29.67;42.76;100969.94;6191918;23;19908;-79
2023/08/16 09:16:46;;;;;;;;;;;;;;;29.80;42.53;100977.63;6193231;23;20243;-78
2023/08/16 09:19:44;;;;;;;;;;;;;;;30.02;40.37;100959.81;6193050;23;20247;-79
2023/08/16 09:22:33;;;;;;;;;;;;;;;30.42;41.04;100968.72;6171516;23;19912;-79
2023/08/16 09:25:25;;;;;;;;;;;;;;;30.55;40.36;100968.75;6171553;23;19908;-79
2023/08/16 09:28:21;;;;;;;;;;;;;;;30.42;40.44;100965.91;6194546;23;19912;-78
2023/08/16 09:31:13;;;;;;;;;;;;;;;30.75;40.17;100971.38;6192895;23;19908;-79
2023/08/16 09:34:05;;;;;;;;;;;;;;;30.83;39.08;100967.13;6173514;23;19916;-80
2023/08/16 09:36:56;;;;;;;;;;;;;;;30.76;39.19;100959.69;6173551;23;20255;-80
2023/08/16 09:39:54;;;;;;;;;;;;;;;30.62;40.40;100962.16;6214354;23;19908;-79
2023/08/16 09:42:45;;;;;;;;;;;;;;;30.95;39.04;100960.69;6194105;23;19908;-80
2023/08/16 09:45:38;;;;;;;;;;;;;;;30.11;41.59;100956.38;6174093;23;19908;-79
2023/08/16 09:48:30;;;;;;;;;;;;;;;30.01;41.79;100957.47;6214597;23;19912;-78
2023/08/16 09:51:22;;;;;;;;;;;;;;;30.55;39.33;100966.75;6214932;23;20336;-78
2023/08/16 09:54:13;;;;;;;;;;;;;;;30.75;39.92;100962.94;6195438;23;19912;-80
2023/08/16 09:57:06;;;;;;;;;;;;;;;30.84;40.18;100958.22;6195360;23;19908;-80
2023/08/16 09:59:56;;;;;;;;;;;;;;;30.94;39.07;100961.94;6190016;23;19938;-79
2023/08/16 10:02:48;;;;;;;;;;;;;;;30.41;41.02;100955.91;6194072;23;19912;-78
2023/08/16 10:05:41;;;;;;;;;;;;;;;30.33;40.54;100962.16;6191621;23;19912;-80
2023/08/16 10:08:33;;;;;;;;;;;;;;;30.31;41.05;100953.41;6190564;23;19912;-78
2023/08/16 10:11:24;;;;;;;;;;;;;;;29.69;42.90;100945.06;6188446;23;19908;-79
2023/08/16 10:14:13;;;;;;;;;;;;;;;29.98;41.99;100945.09;6172372;23;19908;-78
2023/08/16 10:17:05;;;;;;;;;;;;;;;29.81;42.71;100942.75;6192645;23;20235;-78
2023/08/16 10:19:59;;;;;;;;;;;;;;;28.95;44.66;100941.28;6194412;23;19911;-78
2023/08/16 10:22:53;;;;;;;;;;;;;;;29.05;44.50;100931.06;6194426;23;19908;-77
2023/08/16 10:25:49;;;;;;;;;;;;;;;29.09;44.67;100923.34;6194154;23;19908;-83
2023/08/16 10:28:39;;;;;;;;;;;;;;;29.32;43.82;100917.59;6171840;23;19912;-81
2023/08/16 10:31:32;;;;;;;;;;;;;;;29.30;44.12;100920.03;6171216;23;19908;-82
2023/08/16 10:34:25;;;;;;;;;;;;;;;29.96;42.42;100913.13;6192268;23;19908;-78
2023/08/16 10:37:17;;;;;;;;;;;;;;;29.79;42.84;100915.16;6214127;23;19908;-80
2023/08/16 10:40:17;;;;;;;;;;;;;;;29.64;42.94;100919.56;6193740;23;19912;-80
2023/08/16 10:43:09;;;;;;;;;;;;;;;29.54;43.54;100915.81;6194895;23;19916;-80
2023/08/16 10:46:01;;;;;;;;;;;;;;;29.42;43.64;100913.72;6172656;23;20499;-79
2023/08/16 10:48:56;;;;;;;;;;;;;;;29.02;44.65;100913.09;6194782;23;19916;-84
2023/08/16 10:51:55;;;;;;;;;;;;;;;29.54;43.58;100907.41;6214494;23;19912;-82
2023/08/16 10:54:45;;;;;;;;;;;;;;;29.47;43.74;100913.19;6173475;23;19908;-80
2023/08/16 10:57:34;;;;;;;;;;;;;;;29.18;44.41;100903.91;6193613;23;19908;-80
2023/08/16 11:00:38;;;;;;;;;;;;;;;29.17;44.07;100903.13;6194786;23;19908;-80
2023/08/16 11:03:39;;;;;;;;;;;;;;;29.23;43.87;100900.59;6192860;23;19912;-80
2023/08/16 11:06:31;;;;;;;;;;;;;;;29.48;43.76;100903.56;6210409;23;19908;-80
2023/08/16 11:09:21;;;;;;;;;;;;;;;29.63;43.41;100898.38;6192196;23;19912;-80
2023/08/16 11:12:13;;;;;;;;;;;;;;;30.37;40.86;100899.09;6193652;23;19908;-77
2023/08/16 11:15:03;;;;;;;;;;;;;;;30.97;40.21;100888.81;6213613;23;19908;-79
2023/08/16 11:17:50;;;;;;;;;;;;;;;31.61;38.36;100895.09;6170963;23;19912;-78
2023/08/16 11:20:42;;;;;;;;;;;;;;;31.74;38.39;100892.25;6193577;23;19907;-78
2023/08/16 11:23:37;;;;;;;;;;;;;;;31.35;39.38;100891.56;6191645;23;19912;-78
2023/08/16 11:26:29;;;;;;;;;;;;;;;30.01;42.57;100893.75;6192974;23;19916;-79
2023/08/16 11:29:19;;;;;;;;;;;;;;;30.30;41.63;100898.50;6193009;23;19916;-77
2023/08/16 11:32:11;;;;;;;;;;;;;;;30.61;40.93;100893.19;6192352;23;20327;-79
2023/08/16 11:35:06;;;;;;;;;;;;;;;30.38;41.58;100894.25;6172233;23;19908;-77
2023/08/16 11:37:56;;;;;;;;;;;;;;;29.96;42.70;100890.69;6194266;23;20332;-78
2023/08/16 11:40:51;;;;;;;;;;;;;;;30.38;41.06;100888.63;6172910;23;20248;-77
2023/08/16 11:43:38;;;;;;;;;;;;;;;31.00;40.10;100895.53;6194614;23;19908;-79
2023/08/16 11:46:30;;;;;;;;;;;;;;;31.00;40.30;100892.72;6194215;23;19916;-75
2023/08/16 11:49:25;;;;;;;;;;;;;;;31.17;38.80;100894.19;6213057;23;19916;-77
2023/08/16 11:52:21;;;;;;;;;;;;;;;31.58;38.50;100890.41;6172318;23;19907;-78
2023/08/16 11:55:15;;;;;;;;;;;;;;;31.15;39.80;100891.03;6172378;23;19908;-77
2023/08/16 11:58:08;;;;;;;;;;;;;;;30.84;40.77;100892.84;6195598;23;19909;-77
2023/08/16 12:00:53;;;;;;;;;;;;;;;30.68;40.63;100884.56;6214005;23;19908;-77
2023/08/16 12:03:48;;;;;;;;;;;;;;;31.05;39.81;100891.38;6171785;23;19912;-75
2023/08/16 12:06:46;;;;;;;;;;;;;;;30.77;40.85;100877.03;6192161;23;19912;-79
2023/08/16 12:09:41;;;;;;;;;;;;;;;30.74;40.56;100883.53;6172567;23;19912;-77
2023/08/16 12:12:34;;;;;;;;;;;;;;;30.82;40.75;100878.47;6194628;23;19908;-76
2023/08/16 12:15:27;;;;;;;;;;;;;;;30.68;41.05;100876.13;6195340;23;19908;-77
2023/08/16 12:18:19;;;;;;;;;;;;;;;30.99;40.46;100871.47;6170502;23;19912;-77
2023/08/16 12:21:11;;;;;;;;;;;;;;;30.90;40.47;100877.00;6191711;23;20271;-76
2023/08/16 12:24:03;;;;;;;;;;;;;;;31.36;38.61;100873.44;6192755;23;20005;-78
2023/08/16 12:26:50;;;;;;;;;;;;;;;31.84;37.72;100874.19;6193685;23;19911;-77
2023/08/16 12:29:42;;;;;;;;;;;;;;;31.78;39.10;100867.59;6172666;23;20339;-77
2023/08/16 12:32:29;;;;;;;;;;;;;;;31.76;38.22;100870.06;6194430;23;19908;-79
2023/08/16 12:35:20;;;;;;;;;;;;;;;31.97;37.35;100860.06;6174369;23;20312;-81
2023/08/16 12:38:12;;;;;;;;;;;;;;;32.16;36.95;100858.94;6171899;23;19908;-78
2023/08/16 12:41:05;;;;;;;;;;;;;;;31.29;39.99;100859.63;6194545;23;19908;-78
2023/08/16 12:43:51;;;;;;;;;;;;;;;31.96;38.80;100853.63;6194561;23;20331;-82
2023/08/16 12:46:43;;;;;;;;;;;;;;;32.09;38.35;100856.38;6193693;23;20239;-78
2023/08/16 12:49:35;;;;;;;;;;;;;;;31.73;38.95;100856.91;6193098;23;19912;-78
2023/08/16 12:52:24;;;;;;;;;;;;;;;31.76;38.81;100844.75;6213968;23;19912;-77
2023/08/16 12:55:16;;;;;;;;;;;;;;;32.75;36.18;100843.75;6193802;23;19912;-79
2023/08/16 12:58:08;;;;;;;;;;;;;;;32.21;37.60;100845.06;6193242;23;19912;-77
2023/08/16 13:00:58;;;;;;;;;;;;;;;32.14;37.60;100842.53;6193845;23;20320;-77
2023/08/16 13:03:50;;;;;;;;;;;;;;;32.04;38.23;100838.06;6193523;23;19912;-77
2023/08/16 13:06:42;;;;;;;;;;;;;;;32.13;37.92;100840.19;6213408;23;19912;-80
2023/08/16 13:09:31;;;;;;;;;;;;;;;32.08;37.88;100833.09;6193232;23;19916;-79
2023/08/16 13:12:23;;;;;;;;;;;;;;;31.51;39.60;100827.97;6193628;23;20240;-78
2023/08/16 13:15:15;;;;;;;;;;;;;;;31.07;40.76;100830.72;6213173;23;19908;-78
2023/08/16 13:18:22;;;;;;;;;;;;;;;31.51;40.09;100830.78;6196243;23;19907;-85
2023/08/16 13:21:14;;;;;;;;;;;;;;;32.06;38.91;100829.16;6194793;23;19908;-79
2023/08/16 13:24:11;;;;;;;;;;;;;;;32.44;37.79;100831.72;6193640;23;19908;-77
2023/08/16 13:27:00;;;;;;;;;;;;;;;32.53;37.10;100815.66;6215459;23;19912;-77
2023/08/16 13:29:53;;;;;;;;;;;;;;;32.75;36.41;100818.41;6185552;23;19916;-77
2023/08/16 13:32:45;;;;;;;;;;;;;;;32.57;37.67;100818.31;6213060;23;19908;-79
2023/08/16 13:35:37;;;;;;;;;;;;;;;32.94;36.40;100817.19;6195090;23;19931;-78
2023/08/16 13:38:22;;;;;;;;;;;;;;;32.98;36.04;100809.38;6193246;23;20500;-81
2023/08/16 13:41:14;;;;;;;;;;;;;;;32.74;36.05;100799.94;6169421;23;19908;-80
2023/08/16 13:44:06;;;;;;;;;;;;;;;33.01;36.32;100811.28;6191789;23;19908;-81
2023/08/16 13:46:56;;;;;;;;;;;;;;;33.25;35.32;100805.81;6173685;23;20251;-80
2023/08/16 13:49:48;;;;;;;;;;;;;;;33.15;35.15;100795.78;6195129;23;19931;-82
2023/08/16 13:52:38;;;;;;;;;;;;;;;33.04;34.21;100801.06;6171732;23;19908;-80
2023/08/16 13:55:30;;;;;;;;;;;;;;;32.84;36.64;100793.06;6194424;23;19908;-82
2023/08/16 13:58:22;;;;;;;;;;;;;;;32.88;35.33;100790.09;6172763;23;20117;-82
2023/08/16 14:01:14;;;;;;;;;;;;;;;32.76;36.43;100789.00;6193942;23;19908;-83
2023/08/16 14:04:03;;;;;;;;;;;;;;;32.87;36.94;100783.66;6172346;23;19908;-81
2023/08/16 14:06:53;;;;;;;;;;;;;;;32.16;37.71;100792.19;6193109;23;19908;-81
2023/08/16 14:09:45;;;;;;;;;;;;;;;32.29;37.55;100791.31;6172287;23;19912;-87
2023/08/16 14:12:37;;;;;;;;;;;;;;;32.36;36.83;100782.56;6197127;23;19908;-86
2023/08/16 14:15:34;;;;;;;;;;;;;;;33.02;35.53;100786.66;6174368;23;19912;-82
2023/08/16 14:18:26;;;;;;;;;;;;;;;32.84;36.89;100787.44;6194600;23;19908;-78
2023/08/16 14:21:16;;;;;;;;;;;;;;;32.52;37.47;100779.50;6174307;23;19908;-81
2023/08/16 14:24:08;;;;;;;;;;;;;;;32.63;36.52;100774.22;6174334;23;19908;-81
2023/08/16 14:27:00;;;;;;;;;;;;;;;32.15;37.15;100765.28;6174326;23;20247;-78
2023/08/16 14:29:52;;;;;;;;;;;;;;;32.49;36.02;100767.13;6194500;23;19915;-75
2023/08/16 14:32:44;;;;;;;;;;;;;;;32.17;37.50;100768.44;6172874;23;19908;-78
2023/08/16 14:35:33;;;;;;;;;;;;;;;32.08;38.23;100770.38;6195024;23;19908;-78
2023/08/16 14:38:23;;;;;;;;;;;;;;;32.48;36.90;100768.38;6172963;23;20308;-78
2023/08/16 14:41:15;;;;;;;;;;;;;;;32.64;36.26;100761.72;6214308;23;19911;-79